createdAt,value
2018-08-19T00:47:00.339Z,101723.00
2018-08-19T00:52:01.899Z,101719.00
2018-08-19T00:56:55.832Z,101713.00
2018-08-19T01:01:49.095Z,101712.00
2018-08-19T01:06:48.134Z,101703.00
2018-08-19T02:16:23.063Z,101709.00
2018-08-19T02:21:16.392Z,101706.00
2018-08-19T02:26:09.844Z,101701.00
2018-08-19T02:31:03.173Z,101702.00
2018-08-19T02:36:01.021Z,101702.00
2018-08-19T03:45:47.938Z,101692.00
2018-08-19T03:50:41.191Z,101691.00
2018-08-19T03:55:37.221Z,101691.00
2018-08-19T04:00:32.340Z,101682.00
2018-08-19T04:05:43.078Z,101688.00
2018-08-19T05:15:30.330Z,101703.00
2018-08-19T05:20:23.647Z,101706.00
2018-08-19T05:25:16.950Z,101705.00
2018-08-19T05:30:10.805Z,101709.00
2018-08-19T06:39:36.748Z,101672.00
2018-08-19T06:44:30.022Z,101679.00
2018-08-19T06:49:26.274Z,101669.00
2018-08-19T06:54:19.552Z,101665.00
2018-08-19T07:36:55.162Z,101653.00
2018-08-19T07:41:48.394Z,101653.00
2018-08-19T07:46:41.622Z,101652.00
2018-08-19T07:51:34.947Z,101653.00
2018-08-19T07:56:28.231Z,101660.00
2018-08-19T08:01:21.489Z,101650.00
2018-08-19T08:06:14.753Z,101653.00
2018-08-19T08:11:08.009Z,101637.00
2018-08-19T08:16:01.805Z,101635.00
2018-08-19T08:21:00.870Z,101646.00
2018-08-19T08:25:54.201Z,101625.00
2018-08-19T08:30:47.411Z,101639.00
2018-08-19T08:35:45.228Z,101636.00
2018-08-19T08:40:38.464Z,101628.00
2018-08-19T08:45:36.260Z,101617.00
2018-08-19T08:50:29.547Z,101625.00
2018-08-19T08:55:22.873Z,101619.00
2018-08-19T09:00:16.115Z,101625.00
2018-08-19T09:05:11.403Z,101630.00
2018-08-19T09:10:05.502Z,101621.00
2018-08-19T09:14:58.771Z,101615.00
2018-08-19T09:19:52.084Z,101612.00
2018-08-19T09:24:45.341Z,101605.00
2018-08-19T09:29:38.586Z,101597.00
2018-08-19T09:34:31.861Z,101601.00
2018-08-19T09:39:25.166Z,101598.00
2018-08-19T09:44:18.592Z,101592.00
2018-08-19T09:49:11.829Z,101590.00
2018-08-19T09:54:06.107Z,101582.00
2018-08-19T09:59:05.028Z,101581.00
2018-08-19T10:03:58.484Z,101571.00
2018-08-19T10:08:51.756Z,101565.00
2018-08-19T10:13:47.402Z,101561.00
2018-08-19T10:18:40.623Z,101568.00
2018-08-19T10:23:33.974Z,101560.00
2018-08-19T10:28:27.262Z,101552.00
2018-08-19T10:33:21.697Z,101558.00
2018-08-19T10:38:16.046Z,101547.00
2018-08-19T10:43:10.119Z,101541.00
2018-08-19T10:48:03.676Z,101541.00
2018-08-19T10:52:56.960Z,101529.00
2018-08-19T10:57:50.263Z,101530.00
2018-08-19T11:02:43.599Z,101519.00
2018-08-19T11:07:36.902Z,101516.00
2018-08-19T11:12:30.234Z,101501.00
2018-08-19T11:17:23.579Z,101502.00
2018-08-19T11:22:17.463Z,101502.00
2018-08-19T11:27:10.753Z,101494.00
2018-08-19T11:32:04.146Z,101491.00
2018-08-19T11:36:57.371Z,101480.00
2018-08-19T11:41:50.677Z,101478.00
2018-08-19T11:46:43.966Z,101467.00
2018-08-19T11:51:58.883Z,101467.00
2018-08-19T11:57:00.772Z,101464.00
2018-08-19T12:01:54.044Z,101465.00
2018-08-19T12:06:47.304Z,101453.00
2018-08-19T12:11:41.412Z,101450.00
2018-08-19T12:16:47.094Z,101440.00
2018-08-19T12:21:44.825Z,101439.00
2018-08-19T12:26:42.434Z,101434.00
2018-08-19T12:31:35.865Z,101434.00
2018-08-19T12:36:29.182Z,101428.00
2018-08-19T12:41:22.503Z,101423.00
2018-08-19T12:46:15.768Z,101417.00
2018-08-19T12:51:09.114Z,101409.00
2018-08-19T12:56:02.345Z,101404.00
2018-08-19T13:00:55.601Z,101400.00
2018-08-19T13:06:04.118Z,101403.00
2018-08-19T13:11:01.559Z,101393.00
2018-08-19T13:15:54.915Z,101394.00
2018-08-19T13:20:48.167Z,101384.00
2018-08-19T13:25:41.397Z,101379.00
2018-08-19T13:30:34.729Z,101372.00
2018-08-19T13:35:28.048Z,101368.00
2018-08-19T13:40:21.343Z,101358.00
2018-08-19T13:45:17.742Z,101351.00
2018-08-19T13:50:11.252Z,101345.00
2018-08-19T13:55:08.132Z,101337.00
2018-08-19T14:00:01.451Z,101332.00
2018-08-19T14:04:54.695Z,101324.00
2018-08-19T14:09:47.986Z,101329.00
2018-08-19T14:14:41.191Z,101334.00
2018-08-19T14:19:34.396Z,101329.00
2018-08-19T14:24:27.606Z,101324.00
2018-08-19T14:29:20.880Z,101314.00
2018-08-19T14:34:14.124Z,101311.00
2018-08-19T14:39:07.427Z,101314.00
2018-08-19T14:44:02.474Z,101305.00
2018-08-19T14:48:57.733Z,101308.00
2018-08-19T14:53:50.987Z,101303.00
2018-08-19T14:58:45.104Z,101311.00
2018-08-19T15:03:44.182Z,101300.00
2018-08-19T15:08:37.452Z,101293.00
2018-08-19T15:13:30.694Z,101280.00
2018-08-19T15:18:24.834Z,101283.00
2018-08-19T15:23:19.862Z,101277.00
2018-08-19T15:28:13.357Z,101272.00
2018-08-19T15:33:06.935Z,101266.00
2018-08-19T15:38:00.490Z,101270.00
2018-08-19T15:42:53.752Z,101270.00
2018-08-19T15:47:46.990Z,101264.00
2018-08-19T15:52:40.249Z,101265.00
2018-08-19T15:57:33.532Z,101268.00
2018-08-19T16:02:26.848Z,101263.00
2018-08-19T16:07:20.072Z,101260.00
2018-08-19T16:12:13.924Z,101261.00
2018-08-19T16:17:07.187Z,101254.00
2018-08-19T16:22:00.596Z,101249.00
2018-08-19T16:26:53.925Z,101252.00
2018-08-19T16:31:47.231Z,101245.00
2018-08-19T16:36:40.545Z,101248.00
2018-08-19T16:41:33.852Z,101243.00
2018-08-19T16:46:27.096Z,101246.00
2018-08-19T16:51:20.753Z,101239.00
2018-08-19T16:56:14.089Z,101246.00
2018-08-19T17:01:07.390Z,101235.00
2018-08-19T17:06:00.802Z,101232.00
2018-08-19T17:10:54.058Z,101228.00
2018-08-19T17:15:47.322Z,101239.00
2018-08-19T17:20:41.322Z,101240.00
2018-08-19T17:25:34.621Z,101241.00
2018-08-19T17:30:27.847Z,101243.00
2018-08-19T17:35:21.116Z,101243.00
2018-08-19T17:40:15.043Z,101247.00
2018-08-19T17:45:08.409Z,101246.00
2018-08-19T17:50:01.682Z,101243.00
2018-08-19T17:54:54.925Z,101246.00
2018-08-19T17:59:48.876Z,101245.00
2018-08-19T18:04:46.343Z,101249.00
2018-08-19T18:09:44.110Z,101252.00
2018-08-19T18:14:37.335Z,101255.00
2018-08-19T18:19:35.496Z,101257.00
2018-08-19T18:24:29.724Z,101258.00
2018-08-19T18:29:37.943Z,101251.00
2018-08-19T18:34:32.263Z,101258.00
2018-08-19T18:39:26.602Z,101259.00
2018-08-19T18:44:20.109Z,101259.00
2018-08-19T18:49:13.667Z,101264.00
2018-08-19T18:54:15.814Z,101265.00
2018-08-19T18:59:10.090Z,101263.00
2018-08-19T19:04:03.900Z,101263.00
2018-08-19T19:08:57.267Z,101264.00
2018-08-19T19:13:50.528Z,101269.00
2018-08-19T19:18:43.999Z,101269.00
2018-08-19T19:23:39.421Z,101275.00
2018-08-19T19:33:51.847Z,101277.00
2018-08-19T19:39:01.992Z,101280.00
2018-08-19T19:44:13.595Z,101280.00
2018-08-19T19:49:20.701Z,101284.00
2018-08-19T19:54:19.433Z,101288.00
2018-08-19T19:59:20.994Z,101288.00
2018-08-19T20:04:14.493Z,101290.00
2018-08-19T20:09:08.264Z,101292.00
2018-08-19T20:14:02.902Z,101294.00
2018-08-19T20:18:56.167Z,101292.00
2018-08-19T20:23:51.248Z,101297.00
2018-08-19T20:28:48.774Z,101302.00
2018-08-19T20:33:42.144Z,101300.00
2018-08-19T20:38:35.456Z,101301.00
2018-08-19T20:43:28.815Z,101304.00
2018-08-19T20:48:22.564Z,101305.00
2018-08-19T20:53:16.182Z,101303.00
2018-08-19T20:58:10.169Z,101308.00
2018-08-19T21:03:03.612Z,101312.00
2018-08-19T21:08:06.502Z,101311.00
2018-08-19T21:12:59.828Z,101317.00
2018-08-19T21:17:53.079Z,101314.00
2018-08-19T21:22:46.337Z,101315.00
2018-08-19T21:27:39.826Z,101318.00
2018-08-19T21:32:33.478Z,101317.00
2018-08-19T21:37:34.449Z,101321.00
2018-08-19T21:42:27.801Z,101320.00
2018-08-19T21:47:21.068Z,101325.00
2018-08-19T21:52:14.303Z,101326.00
2018-08-19T21:57:07.561Z,101325.00
2018-08-19T22:02:00.812Z,101321.00
2018-08-19T22:06:54.105Z,101323.00
2018-08-19T22:11:47.409Z,101327.00
2018-08-19T22:16:40.700Z,101329.00
2018-08-19T22:21:33.976Z,101330.00
2018-08-19T22:26:27.219Z,101336.00
2018-08-19T22:31:25.649Z,101339.00
2018-08-19T22:36:19.435Z,101346.00
2018-08-19T22:41:12.646Z,101349.00
2018-08-19T22:46:05.888Z,101353.00
2018-08-19T22:50:59.124Z,101347.00
2018-08-19T22:55:52.382Z,101345.00
2018-08-19T23:00:46.575Z,101345.00
2018-08-19T23:05:39.792Z,101333.00
2018-08-19T23:10:33.036Z,101339.00
2018-08-19T23:15:37.788Z,101335.00
2018-08-19T23:20:31.029Z,101334.00
2018-08-19T23:25:24.441Z,101329.00
2018-08-19T23:30:17.754Z,101321.00
2018-08-19T23:35:11.033Z,101319.00
2018-08-19T23:40:04.800Z,101317.00
2018-08-19T23:44:58.084Z,101315.00
2018-08-19T23:49:51.358Z,101317.00
2018-08-19T23:54:44.639Z,101323.00
2018-08-19T23:59:37.928Z,101318.00
